Last 30 Days

Squaw-Siberia 8700'

Daily Data | America/Los_Angeles
as of 7/18/19 11:15 PM PDT
Date Daily Max Temp (°F) Max Temp Time Daily Min Temp (°F) Min Temp Time Wind Spd (mph) Daily Max Wind (mph) Max Wind Time Max Wind Dir (°) Wet Bulb (°F) WetB Hrs <28F (hrs)
7/17/19 65.9 1544 51.0 0452 14.5 34.5 1936 NW | 315 48.4 0.0
7/16/19 61.4 1429 48.9 2122 20.5 42.4 1339 SW | 223 44.6 0.0
7/15/19 62.5 1320 50.4 2147 23.6 48.6 1737 W | 264 43.0 0.0
7/14/19 62.5 1342 51.5 2359 24.9 49.7 1412 WSW | 244 43.6 0.0
7/13/19 66.0 1612 53.1 0542 20.2 47.7 1612 WSW | 247 46.4 0.0
7/12/19 69.2 1435 55.8 2109 10.7 33.9 1508 SW | 232 48.0 0.0
7/11/19 66.2 1403 52.3 0227 17.0 34.2 1648 SSW | 202 45.9 0.0
7/10/19 63.3 1724 47.5 0058 21.8 37.1 1932 SW | 227 45.0 0.0
7/9/19 60.6 1559 45.1 0259 20.6 37.8 1742 W | 275 40.5 0.0
7/8/19 55.6 1409 43.4 0444 28.8 53.4 1613 WNW | 303 39.0 0.0
7/7/19 58.3 1428 45.7 2325 22.0 45.2 1540 SSW | 209 40.8 0.0
7/6/19 61.9 1517 47.8 2353 21.1 42.8 1419 SW | 225 44.0 0.0
7/5/19 63.8 1350 48.2 0318 15.6 34.7 1747 SW | 220 46.3 0.0
7/4/19 61.3 1446 42.0 0409 13.3 26.4 1628 WNW | 291 42.0 0.0
7/3/19 55.5 1530 43.0 2156 17.3 37.5 1744 SW | 220 39.1 0.0
7/2/19 56.2 1459 43.1 2338 25.1 49.8 1510 SSW | 192 38.5 0.0
7/1/19 57.0 1501 43.2 0551 25.5 40.4 1456 SSW | 205 39.3 0.0
6/30/19 57.2 1535 43.1 0625 21.1 41.1 1554 SW | 219 39.9 0.0
6/29/19 54.2 1445 39.4 0308 18.9 35.8 2248 WSW | 240 37.6 0.0
6/28/19 48.6 1840 38.4 0023 21.7 42.0 1114 SW | 220 34.7 0.0
6/27/19 45.7 1422 34.1 0510 36.4 70.6 1053 WSW | 243 33.1 0.0
6/26/19 46.2 1531 35.8 2341 40.4 84.5 1723 SSW | 206 35.5 0.0
6/25/19 53.4 1540 39.9 2358 28.3 55.5 1559 SW | 219 37.8 0.0
6/24/19 57.3 1552 44.7 2345 17.7 45.9 1416 WSW | 238 42.4 0.0
6/23/19 59.9 1525 46.2 0305 14.3 35.6 1759 SSW | 195 40.5 0.0
6/22/19 53.4 1911 35.0 0623 25.2 59.2 0944 ENE | 71 34.7 0.0
6/21/19 54.6 1626 37.0 0539 9.4 36.3 2340 NE | 54 36.6 0.0
6/20/19 55.2 1705 41.0 2217 30.2 68.1 1017 WSW | 238 44.0 0.0
6/19/19 65.0 1356 51.5 2245 16.4 39.5 1358 W | 265 47.9 0.0
6/18/19 68.9 1430 49.8 0412 14.3 40.4 0214 NE | 53 46.9 0.0
Max 69.2 - 55.8 - 40.4 84.5 - - 48.4 0.0
Avg - - - - 21.2 - - - 41.5 -
Min 45.7 - 34.1 - 9.4 26.4 - - 33.1 0.0